Time;durP1;ratioP1;P1;durP2;ratioP2;P2;SDS_P1;SDS_P2;PMS_P1;PMS_P2;Temp;Humidity;BMP_temperature;BMP_pressure;BME280_temperature;BME280_humidity;BME280_pressure;Samples;Min_cycle;Max_cycle;Signal;HPM_P1;HPM_P2
2023/08/26 00:00:30;;;;;;;;;;;;;;;10.76;100.00;99157.00;4972864;28;19925;-84
2023/08/26 00:02:56;;;;;;;;;;;;;;;10.89;100.00;99158.03;4988007;28;19918;-89
2023/08/26 00:05:21;;;;;;;;;;;;;;;10.19;100.00;99168.72;4975614;28;20008;-82
2023/08/26 00:07:46;;;;;;;;;;;;;;;10.62;100.00;99165.69;4976613;28;19941;-84
2023/08/26 00:10:12;;;;;;;;;;;;;;;10.80;100.00;99169.13;4975481;28;20287;-90
2023/08/26 00:12:37;;;;;;;;;;;;;;;10.50;100.00;99170.69;4991678;28;19918;-84
2023/08/26 05:23:09;;;;;;;;;;;;;;;7.34;100.00;99339.63;5773595;23;19954;-89
2023/08/26 05:25:34;;;;;;;;;;;;;;;7.38;100.00;99339.47;4953532;29;20369;-90
2023/08/26 05:28:00;;;;;;;;;;;;;;;7.40;100.00;99337.66;4961889;28;19929;-90
2023/08/26 05:30:27;;;;;;;;;;;;;;;7.35;100.00;99344.84;4939125;29;20358;-89
2023/08/26 05:32:53;;;;;;;;;;;;;;;7.34;100.00;99344.91;4943039;29;19923;-89
2023/08/26 05:35:18;;;;;;;;;;;;;;;7.35;100.00;99341.34;4945692;29;19946;-90
2023/08/26 05:37:45;;;;;;;;;;;;;;;7.37;100.00;99342.16;4943695;29;20309;-89
2023/08/26 05:40:10;;;;;;;;;;;;;;;7.35;100.00;99344.84;4946230;29;19923;-89
2023/08/26 05:42:36;;;;;;;;;;;;;;;7.42;100.00;99342.88;4946209;29;20274;-87
2023/08/26 05:45:01;;;;;;;;;;;;;;;7.38;100.00;99334.19;4946491;28;20424;-88
2023/08/26 05:47:26;;;;;;;;;;;;;;;7.44;100.00;99333.97;4960620;28;20286;-89
2023/08/26 05:49:52;;;;;;;;;;;;;;;7.43;100.00;99337.50;4946046;29;19956;-87
2023/08/26 05:52:17;;;;;;;;;;;;;;;7.45;100.00;99334.81;4943541;29;19919;-88
2023/08/26 05:54:43;;;;;;;;;;;;;;;7.43;100.00;99341.94;4945011;29;20013;-89
2023/08/26 05:57:10;;;;;;;;;;;;;;;7.46;100.00;99347.94;4945574;28;20307;-90
2023/08/26 05:59:35;;;;;;;;;;;;;;;7.46;100.00;99352.34;4945773;29;19919;-86
2023/08/26 06:02:01;;;;;;;;;;;;;;;7.35;100.00;99344.84;4959581;28;20427;-86
2023/08/26 06:04:27;;;;;;;;;;;;;;;7.32;100.00;99341.47;4945859;28;19922;-88
2023/08/26 06:06:52;;;;;;;;;;;;;;;7.40;100.00;99342.91;4944633;28;20432;-88
2023/08/26 06:09:18;;;;;;;;;;;;;;;7.45;100.00;99346.25;4945376;28;20026;-88
2023/08/26 06:11:43;;;;;;;;;;;;;;;7.42;100.00;99343.72;4945678;29;19927;-89
2023/08/26 06:14:08;;;;;;;;;;;;;;;7.48;100.00;99345.25;4944103;29;20381;-87
2023/08/26 06:16:36;;;;;;;;;;;;;;;7.42;100.00;99356.03;4945239;29;19919;-87
2023/08/26 06:19:02;;;;;;;;;;;;;;;7.40;100.00;99353.47;4945253;29;19930;-88
2023/08/26 06:21:27;;;;;;;;;;;;;;;7.37;100.00;99353.56;4944794;29;19923;-88
2023/08/26 06:23:53;;;;;;;;;;;;;;;7.42;100.00;99356.91;4944517;28;19933;-88
2023/08/26 06:26:18;;;;;;;;;;;;;;;7.42;100.00;99351.63;4945101;29;19961;-86
2023/08/26 06:28:43;;;;;;;;;;;;;;;7.43;100.00;99357.75;4945063;29;20322;-87
2023/08/26 06:31:09;;;;;;;;;;;;;;;7.48;100.00;99360.22;4944035;29;19926;-88
2023/08/26 06:33:34;;;;;;;;;;;;;;;7.43;100.00;99355.97;4943976;29;19923;-85
2023/08/26 06:35:59;;;;;;;;;;;;;;;7.43;100.00;99353.31;4944013;29;19925;-87
2023/08/26 06:38:24;;;;;;;;;;;;;;;7.47;100.00;99348.81;4942704;29;19918;-88
2023/08/26 06:40:54;;;;;;;;;;;;;;;7.40;100.00;99342.03;4943831;29;20426;-86
2023/08/26 06:43:19;;;;;;;;;;;;;;;7.42;100.00;99345.50;4944770;29;20429;-87
2023/08/26 06:45:44;;;;;;;;;;;;;;;7.46;100.00;99350.56;4944617;29;20010;-88
2023/08/26 06:48:09;;;;;;;;;;;;;;;7.42;100.00;99345.50;4943663;29;19914;-85
2023/08/26 06:50:35;;;;;;;;;;;;;;;7.41;100.00;99346.41;4944918;28;20416;-85
2023/08/26 06:53:00;;;;;;;;;;;;;;;7.41;100.00;99341.97;4958358;28;19919;-86
2023/08/26 06:55:25;;;;;;;;;;;;;;;7.39;100.00;99346.47;4944461;29;19919;-85
2023/08/26 06:57:52;;;;;;;;;;;;;;;7.45;100.00;99346.25;4944790;29;19918;-86
2023/08/26 07:00:18;;;;;;;;;;;;;;;7.35;100.00;99344.84;4938248;29;19934;-85
2023/08/26 07:02:43;;;;;;;;;;;;;;;7.31;100.00;99340.63;4943011;29;19923;-87
2023/08/26 07:05:08;;;;;;;;;;;;;;;7.31;100.00;99337.97;4944484;29;20017;-84
2023/08/26 07:07:36;;;;;;;;;;;;;;;7.59;100.00;99344.84;4942435;29;19946;-87
2023/08/26 07:10:01;;;;;;;;;;;;;;;8.22;100.00;99352.09;4944823;29;20009;-90
2023/08/26 07:12:27;;;;;;;;;;;;;;;8.49;100.00;99351.03;4942458;29;20017;-90
2023/08/26 07:14:52;;;;;;;;;;;;;;;8.37;100.00;99359.41;4944307;29;19918;-87
2023/08/26 07:17:18;;;;;;;;;;;;;;;7.79;100.00;99347.59;4944689;28;19925;-90
2023/08/26 07:19:43;;;;;;;;;;;;;;;7.62;100.00;99357.91;4944267;28;19915;-87
2023/08/26 07:22:08;;;;;;;;;;;;;;;7.54;100.00;99360.00;4942988;29;19923;-87
2023/08/26 07:24:34;;;;;;;;;;;;;;;7.76;100.00;99352.97;4944584;29;19922;-89
2023/08/26 07:35:20;;;;;;;;;;;;;;;7.70;100.00;99355.00;4983069;28;20344;-86
2023/08/26 07:37:52;;;;;;;;;;;;;;;7.55;100.00;99356.44;4983281;28;19922;-90
2023/08/26 07:40:18;;;;;;;;;;;;;;;7.61;100.00;99345.66;4982561;28;19923;-84
2023/08/26 07:42:44;;;;;;;;;;;;;;;8.31;100.00;99349.97;4983235;28;20017;-84
2023/08/26 07:45:10;;;;;;;;;;;;;;;8.58;100.00;99355.06;4983185;28;19922;-84
2023/08/26 07:47:35;;;;;;;;;;;;;;;8.37;100.00;99362.03;4981203;28;19965;-84
2023/08/26 07:50:01;;;;;;;;;;;;;;;7.81;100.00;99348.38;4982650;28;19922;-84
2023/08/26 07:52:26;;;;;;;;;;;;;;;7.73;100.00;99355.72;4983258;28;19921;-88
2023/08/26 07:54:51;;;;;;;;;;;;;;;7.59;100.00;99347.50;4981636;28;19925;-84
2023/08/26 07:57:16;;;;;;;;;;;;;;;7.56;100.00;99345.84;4981997;28;19930;-85
2023/08/26 07:59:42;;;;;;;;;;;;;;;7.45;100.00;99351.50;4983126;28;20073;-84
2023/08/26 08:02:07;;;;;;;;;;;;;;;7.42;100.00;99334.97;4981066;28;20048;-84
2023/08/26 08:04:32;;;;;;;;;;;;;;;7.51;100.00;99339.00;4997548;28;19932;-86
2023/08/26 08:06:58;;;;;;;;;;;;;;;8.19;100.00;99337.25;4982441;28;19914;-86
2023/08/26 08:09:23;;;;;;;;;;;;;;;8.57;100.00;99336.63;4982695;28;20005;-84
2023/08/26 08:11:48;;;;;;;;;;;;;;;8.51;100.00;99338.59;4982590;28;19919;-83
2023/08/26 08:14:13;;;;;;;;;;;;;;;7.99;100.00;99330.13;4989036;28;20377;-84
2023/08/26 08:16:39;;;;;;;;;;;;;;;8.52;100.00;99337.69;4983270;28;19973;-84
2023/08/26 08:19:04;;;;;;;;;;;;;;;8.78;100.00;99340.16;4981576;28;20371;-84
2023/08/26 08:21:29;;;;;;;;;;;;;;;8.63;100.00;99336.38;4982795;28;20003;-84
2023/08/26 08:23:54;;;;;;;;;;;;;;;8.00;100.00;99331.84;4983002;28;20280;-84
2023/08/26 08:26:20;;;;;;;;;;;;;;;7.84;100.00;99336.88;4985987;28;19965;-85
2023/08/26 08:28:45;;;;;;;;;;;;;;;8.29;100.00;99343.03;4986113;28;19925;-84
2023/08/26 08:31:10;;;;;;;;;;;;;;;8.70;100.00;99332.56;4985716;28;19918;-83
2023/08/26 08:33:35;;;;;;;;;;;;;;;8.83;100.00;99341.66;4990086;28;19922;-83
2023/08/26 08:36:01;;;;;;;;;;;;;;;8.34;100.00;99338.41;5006369;28;19922;-89
2023/08/26 08:38:26;;;;;;;;;;;;;;;8.34;100.00;99347.22;5004479;28;19918;-83
2023/08/26 08:40:51;;;;;;;;;;;;;;;8.69;100.00;99352.81;5005822;28;19929;-83
2023/08/26 08:43:18;;;;;;;;;;;;;;;8.91;100.00;99359.84;5005432;28;19918;-84
2023/08/26 08:45:43;;;;;;;;;;;;;;;8.49;100.00;99360.72;5004914;28;20008;-84
2023/08/26 08:48:09;;;;;;;;;;;;;;;8.60;100.00;99358.50;5003562;28;20004;-88
2023/08/26 08:50:35;;;;;;;;;;;;;;;8.90;100.00;99366.91;5005046;28;20403;-84
2023/08/26 08:53:01;;;;;;;;;;;;;;;9.02;100.00;99364.69;5005583;28;19917;-83
2023/08/26 08:55:26;;;;;;;;;;;;;;;8.42;100.00;99375.06;5012084;28;19917;-83
2023/08/26 08:57:52;;;;;;;;;;;;;;;8.73;100.00;99364.97;5004484;28;20415;-83
2023/08/26 09:00:18;;;;;;;;;;;;;;;8.97;100.00;99369.31;5004909;28;19972;-84
2023/08/26 09:02:45;;;;;;;;;;;;;;;9.12;100.00;99368.63;5004350;28;20483;-86
2023/08/26 09:05:11;;;;;;;;;;;;;;;8.50;100.00;99373.88;5004331;28;19944;-85
2023/08/26 09:07:38;;;;;;;;;;;;;;;8.94;100.00;99370.28;5020293;28;20016;-84
2023/08/26 09:10:05;;;;;;;;;;;;;;;9.11;100.00;99369.56;5004720;28;19925;-85
2023/08/26 09:12:31;;;;;;;;;;;;;;;9.02;100.00;99362.03;5004894;28;19965;-84
2023/08/26 09:14:56;;;;;;;;;;;;;;;8.51;100.00;99359.72;5004719;28;19983;-85
2023/08/26 09:17:21;;;;;;;;;;;;;;;8.97;100.00;99366.66;5003411;28;19918;-87
2023/08/26 09:19:53;;;;;;;;;;;;;;;9.11;100.00;99364.28;5004868;28;19960;-84
2023/08/26 09:22:20;;;;;;;;;;;;;;;8.86;100.00;99364.47;5004677;28;19961;-86
2023/08/26 09:24:45;;;;;;;;;;;;;;;8.39;100.00;99354.91;5003167;28;20054;-87
2023/08/26 09:27:10;;;;;;;;;;;;;;;8.86;100.00;99359.19;5004636;28;20375;-84
2023/08/26 09:29:37;;;;;;;;;;;;;;;9.06;100.00;99348.63;5004820;28;19922;-84
2023/08/26 09:32:03;;;;;;;;;;;;;;;8.72;100.00;99349.19;5003087;28;19928;-84
2023/08/26 09:34:32;;;;;;;;;;;;;;;8.47;100.00;99339.66;5003937;28;20283;-84
2023/08/26 09:36:58;;;;;;;;;;;;;;;8.93;100.00;99334.22;5010218;28;20469;-84
2023/08/26 09:39:23;;;;;;;;;;;;;;;9.09;100.00;99339.69;5004515;28;20004;-84
2023/08/26 09:41:49;;;;;;;;;;;;;;;8.49;100.00;99332.53;5004604;28;20004;-84
2023/08/26 09:44:17;;;;;;;;;;;;;;;8.09;100.00;99318.28;5003824;28;19969;-84
2023/08/26 09:46:46;;;;;;;;;;;;;;;7.95;100.00;99312.72;5004423;28;19973;-84
2023/08/26 09:49:15;;;;;;;;;;;;;;;7.88;100.00;99313.84;5002817;28;19921;-84
2023/08/26 09:51:47;;;;;;;;;;;;;;;7.93;100.00;99309.25;5003877;28;19921;-84
2023/08/26 09:54:16;;;;;;;;;;;;;;;8.59;100.00;99318.97;5004178;28;20258;-84
2023/08/26 09:56:41;;;;;;;;;;;;;;;8.85;100.00;99321.31;5003902;28;20373;-83
2023/08/26 09:59:07;;;;;;;;;;;;;;;8.69;100.00;99328.19;5004266;28;19918;-84
2023/08/26 10:02:13;;;;;;;;;;;;;;;8.00;100.00;99318.66;5010792;28;20041;-84
2023/08/26 10:04:40;;;;;;;;;;;;;;;7.94;100.00;99318.91;5003794;28;19917;-84
2023/08/26 10:07:06;;;;;;;;;;;;;;;8.23;100.00;99309.81;5010842;28;19917;-84
2023/08/26 10:09:39;;;;;;;;;;;;;;;8.70;100.00;99314.06;5003806;28;19925;-84
2023/08/26 10:12:12;;;;;;;;;;;;;;;8.87;100.00;99324.78;5003933;28;19924;-84
2023/08/26 10:14:40;;;;;;;;;;;;;;;8.43;100.00;99321.34;5003458;28;20285;-83
2023/08/26 10:17:07;;;;;;;;;;;;;;;8.27;100.00;99321.13;5009250;28;19956;-83
2023/08/26 10:19:33;;;;;;;;;;;;;;;8.74;100.00;99313.00;5003798;28;20466;-84
2023/08/26 10:21:58;;;;;;;;;;;;;;;8.93;100.00;99320.16;5003023;28;20008;-84
2023/08/26 10:24:24;;;;;;;;;;;;;;;8.70;100.00;99322.84;5002116;28;20008;-84
2023/08/26 10:26:50;;;;;;;;;;;;;;;8.62;100.00;99317.03;5003957;28;19918;-83
2023/08/26 10:29:16;;;;;;;;;;;;;;;8.94;100.00;99312.16;5002369;28;20291;-84
2023/08/26 10:31:45;;;;;;;;;;;;;;;9.07;100.00;99315.13;5004086;28;19928;-86
2023/08/26 10:34:11;;;;;;;;;;;;;;;8.53;100.00;99318.25;5000390;28;19926;-83
2023/08/26 10:36:40;;;;;;;;;;;;;;;8.41;100.00;99309.97;5010384;28;19918;-86
2023/08/26 10:39:14;;;;;;;;;;;;;;;8.93;100.00;99312.22;5018457;28;19918;-84
2023/08/26 10:41:39;;;;;;;;;;;;;;;9.08;100.00;99314.19;5002463;28;19922;-83
2023/08/26 10:44:04;;;;;;;;;;;;;;;8.97;100.00;99311.19;5003841;28;19968;-83
2023/08/26 10:46:31;;;;;;;;;;;;;;;8.41;100.00;99308.22;5003119;28;19968;-83
2023/08/26 10:48:57;;;;;;;;;;;;;;;8.93;100.00;99309.56;5000417;28;20014;-83
2023/08/26 10:51:23;;;;;;;;;;;;;;;9.12;100.00;99313.13;5002656;28;20471;-83
2023/08/26 10:53:48;;;;;;;;;;;;;;;9.13;100.00;99309.56;5018664;28;19960;-82
2023/08/26 10:56:15;;;;;;;;;;;;;;;8.51;100.00;99304.28;5009694;28;19961;-83
2023/08/26 10:58:46;;;;;;;;;;;;;;;9.04;100.00;99299.38;5018357;28;19918;-83
2023/08/26 11:01:12;;;;;;;;;;;;;;;9.19;100.00;99301.38;5001713;28;19924;-86
2023/08/26 11:03:37;;;;;;;;;;;;;;;9.12;100.00;99296.41;5001323;28;19917;-83
2023/08/26 11:06:08;;;;;;;;;;;;;;;8.82;100.00;99310.03;5002731;28;19933;-82
2023/08/26 11:08:35;;;;;;;;;;;;;;;9.12;100.00;99302.53;5002587;28;19925;-83
2023/08/26 11:11:00;;;;;;;;;;;;;;;9.21;100.00;99304.78;5003283;28;20016;-84
2023/08/26 11:13:26;;;;;;;;;;;;;;;8.53;100.00;99297.13;5002532;28;20009;-84
2023/08/26 11:15:51;;;;;;;;;;;;;;;8.69;100.00;99293.84;5002126;28;20028;-83
2023/08/26 11:18:17;;;;;;;;;;;;;;;9.08;100.00;99295.69;5001126;28;19957;-83
2023/08/26 11:20:42;;;;;;;;;;;;;;;9.25;100.00;99297.56;5003028;28;19922;-90
2023/08/26 11:23:08;;;;;;;;;;;;;;;8.66;100.00;99302.78;5002802;28;19928;-84
2023/08/26 11:25:33;;;;;;;;;;;;;;;9.01;100.00;99294.25;5002866;28;20407;-83
2023/08/26 11:28:07;;;;;;;;;;;;;;;9.23;100.00;99295.00;5002533;28;19918;-83
2023/08/26 11:30:53;;;;;;;;;;;;;;;9.03;100.00;99287.09;5002252;28;19958;-83
2023/08/26 11:33:20;;;;;;;;;;;;;;;8.66;100.00;99283.41;5000971;28;20096;-91
2023/08/26 11:35:46;;;;;;;;;;;;;;;9.04;100.00;99272.97;5002734;28;20258;-83
2023/08/26 11:38:12;;;;;;;;;;;;;;;9.30;100.00;99276.22;5003109;28;20021;-83
2023/08/26 11:40:37;;;;;;;;;;;;;;;8.88;100.00;99268.34;5002325;28;19924;-83
2023/08/26 11:43:12;;;;;;;;;;;;;;;8.93;100.00;99268.16;5002338;28;19921;-83
2023/08/26 11:45:38;;;;;;;;;;;;;;;9.15;100.00;99264.56;5002225;28;20000;-83
2023/08/26 11:48:04;;;;;;;;;;;;;;;9.26;100.00;99260.47;5001163;28;19918;-84
2023/08/26 11:50:30;;;;;;;;;;;;;;;8.53;100.00;99268.09;5002593;28;19922;-87
2023/08/26 11:52:55;;;;;;;;;;;;;;;8.88;100.00;99264.84;5002081;28;19952;-84
2023/08/26 11:55:21;;;;;;;;;;;;;;;9.20;100.00;99271.34;5002329;28;19957;-83
2023/08/26 11:57:50;;;;;;;;;;;;;;;9.25;100.00;99276.41;5002478;28;20408;-84
2023/08/26 12:00:18;;;;;;;;;;;;;;;8.76;100.00;99260.97;5019570;28;19941;-83
2023/08/26 12:02:47;;;;;;;;;;;;;;;9.10;100.00;99264.75;5004439;28;20377;-85
2023/08/26 12:05:16;;;;;;;;;;;;;;;9.30;100.00;99257.69;5006267;28;19928;-83
2023/08/26 12:07:45;;;;;;;;;;;;;;;8.87;100.00;99260.50;5006187;28;19928;-82
2023/08/26 12:10:11;;;;;;;;;;;;;;;8.99;100.00;99264.38;5005841;28;19918;-83
2023/08/26 12:12:37;;;;;;;;;;;;;;;9.25;100.00;99265.84;5005501;28;20316;-84
2023/08/26 12:15:15;;;;;;;;;;;;;;;9.29;100.00;99262.16;5005859;28;19922;-83
2023/08/26 12:17:47;;;;;;;;;;;;;;;8.69;100.00;99267.44;5004558;28;20304;-83
2023/08/26 12:20:25;;;;;;;;;;;;;;;9.11;100.00;99263.84;5005755;28;19922;-83
2023/08/26 12:22:51;;;;;;;;;;;;;;;9.33;100.00;99269.00;5005729;28;19940;-83
2023/08/26 12:25:23;;;;;;;;;;;;;;;9.15;100.00;99273.34;5005620;28;19917;-83
2023/08/26 12:27:48;;;;;;;;;;;;;;;8.94;100.00;99276.97;5005448;28;19921;-88
2023/08/26 12:30:13;;;;;;;;;;;;;;;9.24;100.00;99280.84;5005630;28;19924;-83
2023/08/26 12:32:38;;;;;;;;;;;;;;;9.37;100.00;99283.78;5004124;28;19921;-82
2023/08/26 12:35:04;;;;;;;;;;;;;;;8.96;100.00;99275.09;5005195;28;19953;-83
2023/08/26 12:37:29;;;;;;;;;;;;;;;9.09;100.00;99273.59;5006099;28;19933;-83
2023/08/26 12:39:55;;;;;;;;;;;;;;;9.36;100.00;99273.28;5005436;28;20004;-83
2023/08/26 12:42:20;;;;;;;;;;;;;;;9.45;100.00;99279.00;5005067;28;19922;-84
2023/08/26 12:44:45;;;;;;;;;;;;;;;8.86;100.00;99274.66;5005468;28;19963;-83
2023/08/26 12:47:11;;;;;;;;;;;;;;;9.17;100.00;99287.34;5004564;28;20027;-85
2023/08/26 12:49:36;;;;;;;;;;;;;;;9.36;100.00;99283.88;5020375;28;19945;-82
2023/08/26 12:52:01;;;;;;;;;;;;;;;9.37;100.00;99280.31;5004997;28;19968;-83
2023/08/26 12:54:26;;;;;;;;;;;;;;;8.77;100.00;99277.69;5005219;28;20400;-83
2023/08/26 12:56:52;;;;;;;;;;;;;;;9.23;100.00;99275.63;5005374;28;19926;-82
2023/08/26 12:59:18;;;;;;;;;;;;;;;9.36;100.00;99268.00;5020911;28;20005;-84
2023/08/26 13:01:43;;;;;;;;;;;;;;;9.25;100.00;99274.66;5004803;28;19917;-84
2023/08/26 13:04:08;;;;;;;;;;;;;;;9.09;100.00;99271.84;5005052;28;19917;-83
2023/08/26 13:06:34;;;;;;;;;;;;;;;9.38;100.00;99272.31;5011998;28;19918;-83
2023/08/26 13:08:59;;;;;;;;;;;;;;;9.50;100.00;99273.50;5005090;28;20356;-83
2023/08/26 13:11:24;;;;;;;;;;;;;;;8.89;100.00;99269.22;5004856;28;19959;-83
2023/08/26 13:13:50;;;;;;;;;;;;;;;9.28;100.00;99276.28;5003376;28;19918;-82
2023/08/26 13:16:15;;;;;;;;;;;;;;;9.55;100.00;99279.44;5004642;28;19968;-83
2023/08/26 13:18:42;;;;;;;;;;;;;;;9.50;100.00;99281.44;5003692;28;19918;-86
2023/08/26 13:21:08;;;;;;;;;;;;;;;8.95;100.00;99274.25;5004748;28;19914;-83
2023/08/26 13:23:33;;;;;;;;;;;;;;;9.33;100.00;99268.13;5004237;28;19928;-83
2023/08/26 13:25:58;;;;;;;;;;;;;;;9.47;100.00;99267.50;5004358;28;19921;-84
2023/08/26 13:28:24;;;;;;;;;;;;;;;9.20;100.00;99270.50;5004594;28;19973;-83
2023/08/26 13:30:49;;;;;;;;;;;;;;;9.13;100.00;99267.28;5004089;28;20380;-83
2023/08/26 13:33:14;;;;;;;;;;;;;;;9.46;100.00;99274.56;5002845;28;19925;-83
2023/08/26 13:35:40;;;;;;;;;;;;;;;9.60;100.00;99272.13;5004488;28;19917;-83
2023/08/26 13:38:05;;;;;;;;;;;;;;;8.95;100.00;99276.88;5004288;28;19929;-83
2023/08/26 13:40:30;;;;;;;;;;;;;;;9.24;100.00;99272.09;5004467;28;19924;-82
2023/08/26 13:42:56;;;;;;;;;;;;;;;9.45;100.00;99270.22;5004389;28;19917;-84
2023/08/26 13:45:21;;;;;;;;;;;;;;;9.32;100.00;99275.22;5004074;28;20036;-82
2023/08/26 13:47:46;;;;;;;;;;;;;;;8.89;100.00;99267.44;5002472;28;19913;-82
2023/08/26 13:50:11;;;;;;;;;;;;;;;9.29;100.00;99274.50;5004109;28;20312;-83
2023/08/26 13:52:37;;;;;;;;;;;;;;;9.43;100.00;99265.00;5004180;28;19917;-83
2023/08/26 13:55:02;;;;;;;;;;;;;;;9.01;100.00;99281.88;5004916;28;19922;-83
2023/08/26 13:57:28;;;;;;;;;;;;;;;8.97;100.00;99279.47;5003810;28;20387;-83
2023/08/26 13:59:53;;;;;;;;;;;;;;;9.28;100.00;99273.63;5003926;28;19913;-83
2023/08/26 14:02:20;;;;;;;;;;;;;;;9.45;100.00;99264.94;5002629;28;19928;-85
2023/08/26 14:04:45;;;;;;;;;;;;;;;8.87;100.00;99261.38;5003487;28;19972;-83
2023/08/26 14:07:11;;;;;;;;;;;;;;;9.14;100.00;99255.75;5002872;28;19921;-83
2023/08/26 14:09:36;;;;;;;;;;;;;;;9.39;100.00;99258.13;5004049;28;19921;-83
2023/08/26 14:12:02;;;;;;;;;;;;;;;9.49;100.00;99255.91;5003887;28;19918;-84
2023/08/26 14:14:27;;;;;;;;;;;;;;;8.83;100.00;99249.22;5003638;28;19921;-83
2023/08/26 14:16:52;;;;;;;;;;;;;;;9.20;100.00;99247.53;5003612;28;19929;-83
2023/08/26 14:19:17;;;;;;;;;;;;;;;9.39;100.00;99254.66;5002708;28;19975;-83
2023/08/26 14:21:43;;;;;;;;;;;;;;;9.54;100.00;99255.69;5001998;28;20016;-82
2023/08/26 14:24:08;;;;;;;;;;;;;;;8.77;100.00;99254.75;5008665;28;19975;-83
2023/08/26 14:26:33;;;;;;;;;;;;;;;9.12;100.00;99249.69;5003435;28;19918;-83
2023/08/26 14:28:58;;;;;;;;;;;;;;;9.34;100.00;99244.28;5003601;28;19929;-83
2023/08/26 14:31:24;;;;;;;;;;;;;;;9.43;100.00;99246.50;5003446;28;19925;-84
2023/08/26 14:33:49;;;;;;;;;;;;;;;8.72;100.00;99244.38;5001431;28;19969;-82
2023/08/26 14:36:14;;;;;;;;;;;;;;;9.14;100.00;99247.81;5003200;28;20378;-83
2023/08/26 14:38:43;;;;;;;;;;;;;;;9.33;100.00;99237.25;5003478;28;19924;-83
2023/08/26 14:41:09;;;;;;;;;;;;;;;9.46;100.00;99240.19;5002746;28;19957;-82
2023/08/26 14:43:34;;;;;;;;;;;;;;;8.84;100.00;99235.09;5018138;28;19984;-83
2023/08/26 14:46:00;;;;;;;;;;;;;;;9.32;100.00;99229.41;5002563;28;19917;-83
2023/08/26 14:48:26;;;;;;;;;;;;;;;9.44;100.00;99234.13;5002268;28;20258;-83
2023/08/26 14:50:53;;;;;;;;;;;;;;;9.32;100.00;99221.47;5003033;28;20277;-84
2023/08/26 14:53:18;;;;;;;;;;;;;;;9.09;100.00;99212.81;5003412;28;19924;-84
2023/08/26 14:55:43;;;;;;;;;;;;;;;9.34;100.00;99222.28;5002780;28;19918;-82
2023/08/26 14:58:09;;;;;;;;;;;;;;;9.46;100.00;99221.69;5003003;28;19922;-83
2023/08/26 15:00:35;;;;;;;;;;;;;;;8.97;100.00;99216.91;5003190;28;19921;-83
2023/08/26 15:03:00;;;;;;;;;;;;;;;9.23;100.00;99214.84;5001217;28;20312;-83
2023/08/26 15:05:28;;;;;;;;;;;;;;;9.38;100.00;99208.84;5003556;28;20346;-89
2023/08/26 15:07:54;;;;;;;;;;;;;;;9.53;100.00;99222.28;5004795;28;19924;-81
2023/08/26 15:10:19;;;;;;;;;;;;;;;8.82;100.00;99214.94;5002790;28;20008;-83
2023/08/26 15:12:44;;;;;;;;;;;;;;;9.03;100.00;99202.53;5002718;28;19933;-84
2023/08/26 15:15:10;;;;;;;;;;;;;;;9.29;100.00;99203.13;5002250;28;19922;-83
2023/08/26 15:17:35;;;;;;;;;;;;;;;9.45;100.00;99207.59;5001444;28;19917;-83
2023/08/26 15:20:01;;;;;;;;;;;;;;;8.77;100.00;99199.28;5002879;28;19970;-84
2023/08/26 15:22:26;;;;;;;;;;;;;;;8.98;100.00;99192.16;5002555;28;20361;-84
2023/08/26 15:24:52;;;;;;;;;;;;;;;9.31;100.00;99194.19;5002266;28;19921;-84
2023/08/26 15:27:18;;;;;;;;;;;;;;;9.34;100.00;99195.84;5002763;28;19917;-84
2023/08/26 15:29:45;;;;;;;;;;;;;;;8.64;100.00;99193.69;4993932;28;19925;-86
2023/08/26 15:32:10;;;;;;;;;;;;;;;8.75;100.00;99193.22;4999753;28;20262;-82
2023/08/26 15:34:38;;;;;;;;;;;;;;;9.16;100.00;99195.78;4987396;28;19933;-94
2023/08/26 15:37:03;;;;;;;;;;;;;;;9.27;100.00;99195.28;5010892;28;19925;-83
2023/08/26 15:39:28;;;;;;;;;;;;;;;8.66;100.00;99193.63;4996725;28;19997;-86
2023/08/26 15:41:53;;;;;;;;;;;;;;;8.37;100.00;99182.53;4995400;28;19996;-84
2023/08/26 15:44:19;;;;;;;;;;;;;;;8.22;100.00;99177.91;5007405;28;19975;-83
2023/08/26 15:46:44;;;;;;;;;;;;;;;8.69;100.00;99177.66;4994662;28;19926;-85
2023/08/26 15:49:19;;;;;;;;;;;;;;;9.02;100.00;99179.69;4991238;28;19925;-84
2023/08/26 15:51:44;;;;;;;;;;;;;;;9.03;100.00;99186.66;4995671;28;19926;-85
2023/08/26 15:54:10;;;;;;;;;;;;;;;8.51;100.00;99185.47;4993173;28;19925;-83
2023/08/26 15:56:36;;;;;;;;;;;;;;;8.13;100.00;99177.38;4994543;28;19926;-84
2023/08/26 15:59:02;;;;;;;;;;;;;;;7.99;100.00;99177.09;4993946;28;19928;-85
2023/08/26 16:01:30;;;;;;;;;;;;;;;7.99;100.00;99175.34;4996693;28;19914;-93
2023/08/26 16:03:56;;;;;;;;;;;;;;;8.54;100.00;99182.69;4984244;28;19936;-85
2023/08/26 16:06:21;;;;;;;;;;;;;;;9.37;100.00;99191.25;4995960;28;19922;-86
2023/08/26 16:08:47;;;;;;;;;;;;;;;10.27;100.00;99200.13;5011089;28;19976;-87
2023/08/26 16:11:12;;;;;;;;;;;;;;;10.57;100.00;99187.09;4986529;28;19925;-82
2023/08/26 16:13:37;;;;;;;;;;;;;;;10.49;100.00;99187.50;4995478;28;20025;-83
2023/08/26 16:16:03;;;;;;;;;;;;;;;10.21;100.00;99188.06;4992094;28;19933;-81
2023/08/26 16:18:28;;;;;;;;;;;;;;;9.70;100.00;99181.75;4994253;28;20008;-84
2023/08/26 16:21:03;;;;;;;;;;;;;;;8.87;100.00;99187.41;4993789;28;19921;-86
2023/08/26 16:23:28;;;;;;;;;;;;;;;8.71;100.00;99191.63;5010461;28;19925;-82
2023/08/26 16:25:54;;;;;;;;;;;;;;;8.41;100.00;99185.88;5010158;28;19969;-84
2023/08/26 16:28:19;;;;;;;;;;;;;;;8.74;100.00;99202.06;5008509;28;19991;-83
2023/08/26 16:30:44;;;;;;;;;;;;;;;9.20;100.00;99199.97;4992662;28;19926;-83
2023/08/26 16:33:10;;;;;;;;;;;;;;;9.03;100.00;99208.69;4993641;28;19969;-82
2023/08/26 16:35:35;;;;;;;;;;;;;;;8.52;100.00;99203.03;4992348;28;19966;-83
2023/08/26 16:38:01;;;;;;;;;;;;;;;8.17;100.00;99205.38;5007019;28;20412;-82
2023/08/26 16:40:26;;;;;;;;;;;;;;;8.43;100.00;99203.41;4994211;28;19928;-84
2023/08/26 16:42:52;;;;;;;;;;;;;;;8.82;100.00;99205.25;4993284;28;19968;-87
2023/08/26 16:45:17;;;;;;;;;;;;;;;8.99;100.00;99209.75;5009344;28;19969;-83
2023/08/26 16:47:42;;;;;;;;;;;;;;;8.57;100.00;99221.31;4992561;28;20455;-83
2023/08/26 16:50:08;;;;;;;;;;;;;;;8.41;100.00;99218.44;5000820;28;19926;-87
2023/08/26 16:52:33;;;;;;;;;;;;;;;8.74;100.00;99212.63;5009894;28;19921;-83
2023/08/26 16:54:58;;;;;;;;;;;;;;;8.89;100.00;99226.97;4994564;28;19921;-85
2023/08/26 16:57:23;;;;;;;;;;;;;;;8.87;100.00;99226.16;5010182;28;19921;-82
2023/08/26 16:59:49;;;;;;;;;;;;;;;8.23;100.00;99217.44;4994179;28;19977;-87
2023/08/26 17:02:16;;;;;;;;;;;;;;;8.08;100.00;99204.91;4992699;28;19917;-84
2023/08/26 17:04:41;;;;;;;;;;;;;;;8.34;100.00;99214.34;4995152;28;20009;-92
2023/08/26 17:07:07;;;;;;;;;;;;;;;8.68;100.00;99228.75;5009628;28;20504;-83
2023/08/26 17:09:32;;;;;;;;;;;;;;;8.80;100.00;99225.56;4994106;28;19929;-85
2023/08/26 17:11:59;;;;;;;;;;;;;;;8.59;100.00;99223.88;4994947;28;19944;-83
2023/08/26 17:14:24;;;;;;;;;;;;;;;8.34;100.00;99222.25;4994940;28;19918;-86
2023/08/26 17:16:50;;;;;;;;;;;;;;;8.68;100.00;99228.75;4994908;28;19929;-83
2023/08/26 17:19:15;;;;;;;;;;;;;;;8.87;100.00;99224.38;4992279;28;20365;-83
2023/08/26 17:21:40;;;;;;;;;;;;;;;8.61;100.00;99225.50;4993338;28;19926;-84
2023/08/26 17:24:07;;;;;;;;;;;;;;;8.13;100.00;99221.38;4992076;28;19944;-83
2023/08/26 17:26:32;;;;;;;;;;;;;;;7.92;100.00;99218.72;5009046;28;20428;-83
2023/08/26 17:28:57;;;;;;;;;;;;;;;7.85;100.00;99225.19;4993463;28;19917;-84
2023/08/26 17:31:22;;;;;;;;;;;;;;;8.31;100.00;99231.19;4993479;28;20305;-83
2023/08/26 17:33:47;;;;;;;;;;;;;;;8.62;100.00;99229.03;4993081;28;20013;-84
2023/08/26 17:36:13;;;;;;;;;;;;;;;8.79;100.00;99237.06;4994714;28;19964;-84
2023/08/26 17:38:38;;;;;;;;;;;;;;;8.34;100.00;99238.09;4991082;28;20068;-86
2023/08/26 17:41:03;;;;;;;;;;;;;;;7.89;100.00;99234.66;4991529;28;19922;-84
2023/08/26 17:43:28;;;;;;;;;;;;;;;7.70;100.00;99224.00;5004483;28;19972;-83
2023/08/26 17:45:54;;;;;;;;;;;;;;;7.72;100.00;99230.09;4994449;28;19976;-83
2023/08/26 17:48:20;;;;;;;;;;;;;;;7.61;100.00;99229.63;4993102;28;19914;-83
2023/08/26 17:50:46;;;;;;;;;;;;;;;8.18;100.00;99235.25;4994329;28;20361;-83
2023/08/26 17:53:12;;;;;;;;;;;;;;;8.48;100.00;99243.69;4983128;28;19929;-83
2023/08/26 17:55:37;;;;;;;;;;;;;;;8.68;100.00;99234.91;4991087;28;19926;-83